Skip Navigation Links
NOAA logo - Click to go to the NOAA homepage
NOAA's National Weather Service
Alaska Aviation Weather Unit
  NWS logo - Click to go to the NWS homepage
Left Navbar Graphic     02 AKDT = 10 GMT

   
NOAA is celebrating 200 years of science, service, and stewardship. Visit the NOAA 200th celebration Web site to learn more.
USA.gov is the U.S. Government's official Web portal to all Federal, state and local government Web resources and services.
Facebook
NWS on Facebook

AAWU Home :: Display TAF Add Bookmark
METAR PATL 270455Z AUTO 06008KT 350V110 10SM CLR M07/M18 A2974=

METAR PATL 270555Z AUTO 06010KT 030V100 10SM CLR M08/M18 A2974=

METAR PATL 270655Z AUTO 06009KT 010V100 10SM CLR M09/M18 A2973=

METAR PATL 270755Z AUTO 07007KT 050V110 10SM CLR M10/M18 A2973=

METAR PATL 270855Z AUTO VRB06KT 10SM CLR M10/M18 A2972=

METAR PATL 270955Z AUTO VRB05KT 10SM CLR M11/M18 A2972=


NOAA's National Weather Service
Alaska Aviation Weather Unit
6930 Sand Lake Road
Anchorage, AK 99502-1845
Disclaimer
Credits
Glossary
Privacy Policy
About Us
Career Opportunities
Contact AAWU Internet Services Site last modified: April, 17th 2012